createdAt,value
2019-04-16T00:01:51.179Z,10.85
2019-04-16T00:04:43.526Z,10.55
2019-04-16T00:07:27.978Z,10.43
2019-04-16T00:10:14.249Z,9.98
2019-04-16T00:13:06.692Z,10.98
2019-04-16T00:15:40.939Z,10.70
2019-04-16T00:18:09.299Z,10.68
2019-04-16T00:20:50.944Z,9.83
2019-04-16T00:23:31.303Z,11.10
2019-04-16T00:26:01.798Z,10.85
2019-04-16T00:28:32.146Z,11.53
2019-04-16T00:31:04.671Z,10.25
2019-04-16T00:33:34.590Z,10.72
2019-04-16T00:36:05.318Z,11.12
2019-04-16T00:38:40.921Z,11.43
2019-04-16T00:41:07.757Z,10.82
2019-04-16T00:43:38.081Z,10.40
2019-04-16T00:46:11.607Z,10.53
2019-04-16T00:48:40.605Z,11.05
2019-04-16T00:51:11.042Z,10.60
2019-04-16T00:53:41.682Z,9.75
2019-04-16T00:56:13.377Z,10.53
2019-04-16T00:58:44.351Z,10.43
2019-04-16T01:01:14.845Z,10.40
2019-04-16T01:03:45.198Z,10.53
2019-04-16T01:06:15.684Z,10.43
2019-04-16T01:08:54.444Z,11.00
2019-04-16T01:11:18.563Z,10.32
2019-04-16T01:13:49.213Z,9.70
2019-04-16T01:16:19.677Z,10.90
2019-04-16T01:18:50.162Z,10.88
2019-04-16T01:21:20.614Z,10.30
2019-04-16T01:23:52.034Z,9.80
2019-04-16T01:26:24.214Z,10.05
2019-04-16T01:29:08.386Z,10.08
2019-04-16T01:31:47.750Z,10.65
2019-04-16T01:34:32.332Z,10.70
2019-04-16T01:37:34.088Z,10.18
2019-04-16T01:40:05.118Z,10.15
2019-04-16T01:42:36.594Z,10.58
2019-04-16T01:45:08.712Z,10.00
2019-04-16T01:47:39.125Z,10.15
2019-04-16T01:50:12.919Z,10.32
2019-04-16T01:52:41.946Z,10.35
2019-04-16T01:55:12.451Z,10.35
2019-04-16T01:57:43.207Z,10.23
2019-04-16T02:00:14.098Z,10.08
2019-04-16T02:02:47.903Z,9.78
2019-04-16T02:05:20.435Z,10.50
2019-04-16T02:07:51.223Z,10.25
2019-04-16T02:10:21.975Z,10.90
2019-04-16T02:12:52.655Z,10.00
2019-04-16T02:15:23.233Z,9.98
2019-04-16T02:17:55.443Z,10.38
2019-04-16T02:20:26.033Z,10.20
2019-04-16T02:22:56.628Z,9.90
2019-04-16T02:25:27.180Z,9.58
2019-04-16T02:27:58.115Z,10.18
2019-04-16T02:30:28.359Z,10.43
2019-04-16T02:32:58.750Z,9.55
2019-04-16T02:35:29.200Z,9.45
2019-04-16T02:37:59.838Z,10.10
2019-04-16T02:40:30.907Z,9.90
2019-04-16T02:43:06.648Z,9.13
2019-04-16T02:45:33.499Z,9.13
2019-04-16T02:48:06.019Z,10.10
2019-04-16T02:50:45.797Z,9.30
2019-04-16T02:53:34.265Z,9.00
2019-04-16T02:56:22.235Z,9.25
2019-04-16T02:59:09.711Z,9.18
2019-04-16T03:01:49.344Z,9.75
2019-04-16T03:04:26.727Z,9.65
2019-04-16T03:06:54.709Z,9.18
2019-04-16T03:09:25.282Z,9.15
2019-04-16T03:11:56.077Z,9.08
2019-04-16T03:14:29.785Z,9.35
2019-04-16T03:17:23.352Z,9.40
2019-04-16T03:19:54.733Z,9.25
2019-04-16T03:22:25.423Z,8.60
2019-04-16T03:24:56.024Z,8.50
2019-04-16T03:27:26.498Z,9.18
2019-04-16T03:30:02.983Z,9.00
2019-04-16T03:32:33.444Z,8.28
2019-04-16T03:35:01.086Z,8.68
2019-04-16T03:37:32.988Z,8.53
2019-04-16T03:40:15.114Z,9.43
2019-04-16T03:42:36.211Z,9.20
2019-04-16T03:45:08.968Z,8.88
2019-04-16T03:47:38.717Z,8.78
2019-04-16T03:50:11.151Z,8.58
2019-04-16T03:52:45.489Z,8.83
2019-04-16T03:55:13.547Z,9.60
2019-04-16T03:57:45.968Z,9.05
2019-04-16T04:00:17.691Z,9.43
2019-04-16T04:02:48.066Z,9.18
2019-04-16T04:05:18.463Z,9.70
2019-04-16T04:07:48.953Z,8.70
2019-04-16T04:10:30.362Z,9.63
2019-04-16T04:12:51.729Z,9.33
2019-04-16T04:15:26.031Z,8.85
2019-04-16T04:17:54.086Z,9.38
2019-04-16T04:20:24.485Z,8.88
2019-04-16T04:22:57.199Z,10.08
2019-04-16T04:25:26.947Z,9.28
2019-04-16T04:27:58.986Z,8.75
2019-04-16T04:30:29.678Z,9.90
2019-04-16T04:33:00.198Z,9.78
2019-04-16T04:35:30.816Z,9.70
2019-04-16T04:38:04.939Z,9.18
2019-04-16T04:40:44.399Z,9.05
2019-04-16T04:43:07.735Z,9.58
2019-04-16T04:45:41.488Z,9.05
2019-04-16T04:48:12.232Z,9.25
2019-04-16T04:50:43.106Z,8.73
2019-04-16T04:53:15.578Z,8.90
2019-04-16T04:55:45.846Z,9.60
2019-04-16T04:58:18.147Z,9.53
2019-04-16T05:00:48.672Z,9.08
2019-04-16T05:03:44.397Z,9.43
2019-04-16T05:06:19.524Z,9.93
2019-04-16T05:08:49.870Z,9.65
2019-04-16T05:11:20.486Z,10.05
2019-04-16T05:13:53.505Z,9.83
2019-04-16T05:16:23.069Z,9.28
2019-04-16T05:18:53.425Z,8.85
2019-04-16T05:21:24.176Z,9.38
2019-04-16T05:23:57.588Z,9.93
2019-04-16T05:26:26.857Z,8.75
2019-04-16T05:29:16.130Z,9.30
2019-04-16T05:31:43.390Z,8.73
2019-04-16T05:34:16.989Z,9.08
2019-04-16T05:36:47.700Z,8.88
2019-04-16T05:39:18.139Z,8.90
2019-04-16T05:41:52.879Z,8.98
2019-04-16T05:44:25.492Z,10.00
2019-04-16T05:46:55.883Z,8.70
2019-04-16T05:49:26.535Z,9.53
2019-04-16T05:52:02.830Z,9.63
2019-04-16T05:54:50.704Z,9.08
2019-04-16T05:57:27.493Z,9.93
2019-04-16T05:59:58.285Z,9.18
2019-04-16T06:02:37.158Z,8.95
2019-04-16T06:05:08.183Z,9.10
2019-04-16T06:07:38.759Z,9.53
2019-04-16T06:10:17.010Z,9.63
2019-04-16T06:13:02.050Z,9.78
2019-04-16T06:15:41.850Z,9.70
2019-04-16T06:18:40.285Z,9.18
2019-04-16T06:21:32.968Z,8.80
2019-04-16T06:24:14.357Z,9.68
2019-04-16T06:26:57.427Z,9.45
2019-04-16T06:29:47.004Z,8.43
2019-04-16T06:33:03.768Z,9.10
2019-04-16T06:35:59.382Z,9.80
2019-04-16T06:38:49.394Z,9.28
2019-04-16T06:41:47.840Z,8.68
2019-04-16T06:44:21.804Z,9.28
2019-04-16T06:47:10.478Z,9.20
2019-04-16T06:50:11.898Z,9.33
2019-04-16T06:53:04.575Z,8.50
2019-04-16T06:56:15.277Z,9.10
2019-04-16T06:58:57.247Z,8.85
2019-04-16T07:01:53.762Z,9.48
2019-04-16T07:04:51.903Z,9.75
2019-04-16T07:07:52.609Z,8.73
2019-04-16T07:11:03.310Z,8.75
2019-04-16T07:14:22.431Z,8.65
2019-04-16T07:17:36.427Z,9.45
2019-04-16T07:20:36.437Z,9.10
2019-04-16T07:27:03.803Z,9.15
2019-04-16T07:30:32.058Z,9.18
2019-04-16T07:34:11.747Z,9.20
2019-04-16T07:38:04.814Z,8.88
2019-04-16T07:41:10.970Z,8.90
2019-04-16T07:44:27.428Z,9.53
2019-04-16T07:55:07.399Z,9.28
2019-04-16T08:01:25.056Z,9.80
2019-04-16T08:04:09.984Z,8.88
2019-04-16T08:06:40.606Z,9.05
2019-04-16T08:09:11.033Z,9.80
2019-04-16T08:11:54.100Z,9.80
2019-04-16T08:14:30.712Z,8.90
2019-04-16T08:17:09.737Z,9.03
2019-04-16T08:19:55.202Z,9.88
2019-04-16T08:22:30.145Z,8.83
2019-04-16T08:25:07.543Z,10.13
2019-04-16T08:27:42.812Z,10.43
2019-04-16T08:30:19.880Z,8.83
2019-04-16T08:32:55.250Z,9.88
2019-04-16T08:35:30.352Z,9.40
2019-04-16T08:38:07.989Z,9.45
2019-04-16T08:40:46.335Z,9.75
2019-04-16T08:43:26.754Z,9.85
2019-04-16T08:45:57.779Z,10.18
2019-04-16T08:48:29.617Z,10.05
2019-04-16T08:51:04.323Z,9.80
2019-04-16T08:53:35.569Z,10.25
2019-04-16T08:56:05.620Z,9.93
2019-04-16T08:58:38.362Z,10.88
2019-04-16T09:01:09.976Z,9.40
2019-04-16T09:03:40.503Z,9.85
2019-04-16T09:06:15.371Z,10.08
2019-04-16T09:08:56.673Z,9.80
2019-04-16T09:11:28.542Z,9.75
2019-04-16T09:39:49.473Z,9.75
2019-04-16T09:44:41.135Z,10.08
2019-04-16T10:16:38.782Z,11.88
2019-04-16T10:20:20.461Z,12.03
2019-04-16T10:31:46.444Z,11.85
2019-04-16T10:50:42.980Z,11.73
2019-04-16T11:36:59.602Z,10.60
2019-04-16T11:40:40.937Z,11.68
2019-04-16T11:52:04.375Z,11.38
2019-04-16T11:59:01.727Z,12.60
2019-04-16T12:02:06.996Z,13.25
2019-04-16T12:05:03.649Z,13.20
2019-04-16T12:08:16.209Z,13.13
2019-04-16T12:11:12.064Z,13.48
2019-04-16T12:13:54.022Z,13.80
2019-04-16T12:16:49.517Z,13.22
2019-04-16T12:19:44.715Z,12.63
2019-04-16T12:22:24.234Z,12.85
2019-04-16T12:25:26.600Z,13.00
2019-04-16T12:28:32.611Z,11.80
2019-04-16T12:31:17.764Z,11.73
2019-04-16T12:37:48.143Z,11.55
2019-04-16T12:40:55.205Z,12.15
2019-04-16T12:47:06.045Z,12.50
2019-04-16T12:50:18.064Z,13.62
2019-04-16T12:53:21.086Z,12.35
2019-04-16T12:56:41.148Z,12.75
2019-04-16T13:00:02.265Z,13.13
2019-04-16T13:02:52.096Z,13.32
2019-04-16T13:06:01.320Z,12.78
2019-04-16T13:08:55.688Z,12.40
2019-04-16T13:12:09.454Z,13.13
2019-04-16T13:15:18.557Z,11.57
2019-04-16T13:19:03.513Z,11.95
2019-04-16T13:22:29.071Z,11.28
2019-04-16T13:25:54.652Z,11.10
2019-04-16T13:29:20.173Z,12.00
2019-04-16T13:35:47.179Z,10.78
2019-04-16T13:39:02.567Z,10.08
2019-04-16T13:42:48.740Z,10.08
2019-04-16T14:00:21.785Z,9.40
2019-04-16T14:03:10.049Z,10.10
2019-04-16T14:10:54.146Z,9.80
2019-04-16T14:15:31.844Z,8.98
2019-04-16T14:28:51.498Z,8.20
2019-04-16T14:31:01.320Z,9.35
2019-04-16T14:33:51.295Z,8.78
2019-04-16T14:36:32.737Z,9.05
2019-04-16T14:39:18.382Z,9.33
2019-04-16T14:42:03.500Z,10.18
2019-04-16T14:44:41.191Z,9.45
2019-04-16T14:47:12.101Z,9.08
2019-04-16T14:49:42.937Z,10.00
2019-04-16T14:52:18.054Z,9.90
2019-04-16T14:54:54.778Z,8.23
2019-04-16T14:57:28.853Z,9.75
2019-04-16T15:00:23.547Z,10.23
2019-04-16T15:03:17.792Z,9.70
2019-04-16T15:06:19.640Z,9.60
2019-04-16T15:09:12.611Z,9.43
2019-04-16T15:12:07.483Z,8.68
2019-04-16T15:14:42.275Z,8.93
2019-04-16T15:17:29.444Z,8.98
2019-04-16T15:20:17.830Z,10.00
2019-04-16T15:23:12.452Z,10.78
2019-04-16T15:25:59.003Z,10.63
2019-04-16T15:28:34.431Z,9.85
2019-04-16T15:31:09.817Z,9.78
2019-04-16T15:34:02.493Z,11.70
2019-04-16T15:36:40.007Z,11.10
2019-04-16T15:39:24.299Z,11.83
2019-04-16T15:42:19.996Z,11.15
2019-04-16T15:45:03.446Z,13.32
2019-04-16T15:48:05.168Z,12.63
2019-04-16T15:50:53.539Z,13.13
2019-04-16T15:53:47.764Z,13.90
2019-04-16T15:56:44.933Z,13.60
2019-04-16T15:59:22.590Z,12.68
2019-04-16T16:02:10.974Z,12.95
2019-04-16T16:05:12.818Z,13.72
2019-04-16T16:07:55.996Z,12.68
2019-04-16T16:10:29.379Z,13.32
2019-04-16T16:12:59.803Z,13.08
2019-04-16T16:15:30.704Z,14.15
2019-04-16T16:18:04.255Z,14.70
2019-04-16T16:20:33.937Z,15.00
2019-04-16T16:23:08.249Z,14.98
2019-04-16T16:25:41.366Z,12.78
2019-04-16T16:28:13.844Z,14.30
2019-04-16T16:30:44.509Z,13.43
2019-04-16T16:33:15.425Z,13.65
2019-04-16T16:35:57.779Z,13.68
2019-04-16T16:38:21.059Z,12.65
2019-04-16T16:40:54.325Z,13.85
2019-04-16T16:43:25.095Z,14.18
2019-04-16T16:46:06.975Z,13.72
2019-04-16T16:48:37.363Z,13.45
2019-04-16T16:51:10.307Z,13.20
2019-04-16T16:54:02.108Z,13.80
2019-04-16T16:57:02.073Z,14.58
2019-04-16T16:59:47.622Z,13.60
2019-04-16T17:02:21.873Z,14.70
2019-04-16T17:04:54.634Z,13.83
2019-04-16T17:07:25.812Z,13.55
2019-04-16T17:09:59.669Z,14.50
2019-04-16T17:12:32.322Z,13.30
2019-04-16T17:15:09.048Z,14.05
2019-04-16T17:17:39.598Z,14.98
2019-04-16T17:20:10.252Z,14.35
2019-04-16T17:22:41.083Z,13.98
2019-04-16T17:25:12.579Z,14.38
2019-04-16T17:27:51.275Z,15.23
2019-04-16T17:30:16.282Z,15.25
2019-04-16T17:32:47.270Z,15.10
2019-04-16T17:35:18.078Z,15.38
2019-04-16T17:37:54.153Z,14.20
2019-04-16T17:40:44.109Z,14.55
2019-04-16T17:43:20.160Z,15.13
2019-04-16T17:46:42.527Z,14.30
2019-04-16T17:49:47.279Z,14.83
2019-04-16T17:52:25.420Z,14.45
2019-04-16T17:55:12.135Z,14.15
2019-04-16T17:58:03.512Z,14.33
2019-04-16T18:01:15.688Z,14.38
2019-04-16T18:04:10.471Z,14.13
2019-04-16T18:07:16.319Z,13.70
2019-04-16T18:10:00.086Z,10.98
2019-04-16T18:12:47.302Z,7.10
2019-04-16T18:15:26.323Z,5.97
2019-04-16T18:18:18.944Z,5.37
2019-04-16T18:20:59.367Z,5.37
2019-04-16T18:23:47.769Z,4.67
2019-04-16T18:26:56.107Z,4.75
2019-04-16T18:29:44.174Z,5.67
2019-04-16T18:32:27.622Z,4.35
2019-04-16T18:35:16.574Z,4.12
2019-04-16T18:38:02.602Z,3.90
2019-04-16T18:40:53.560Z,3.95
2019-04-16T18:43:58.607Z,4.42
2019-04-16T18:47:10.840Z,3.60
2019-04-16T18:49:47.408Z,4.03
2019-04-16T18:52:27.555Z,4.78
2019-04-16T18:55:01.265Z,4.40
2019-04-16T18:57:38.420Z,4.30
2019-04-16T19:00:24.611Z,4.00
2019-04-16T19:02:55.418Z,3.90
2019-04-16T19:05:26.549Z,4.70
2019-04-16T19:08:02.761Z,3.80
2019-04-16T19:10:34.737Z,3.85
2019-04-16T19:13:11.214Z,4.60
2019-04-16T19:15:38.143Z,4.45
2019-04-16T19:18:18.924Z,5.03
2019-04-16T19:20:40.956Z,4.58
2019-04-16T19:23:11.895Z,4.50
2019-04-16T19:25:42.366Z,4.22
2019-04-16T19:28:13.106Z,2.98
2019-04-16T19:30:43.743Z,2.92
2019-04-16T19:33:15.557Z,3.30
2019-04-16T19:35:50.869Z,2.62
2019-04-16T19:38:19.775Z,3.00
2019-04-16T19:40:50.885Z,2.80
2019-04-16T19:43:22.476Z,3.08
2019-04-16T19:45:53.011Z,3.00
2019-04-16T19:48:35.940Z,3.20
2019-04-16T19:51:08.933Z,3.17
2019-04-16T19:53:39.999Z,2.80
2019-04-16T19:56:10.786Z,2.52
2019-04-16T19:58:44.303Z,3.00
2019-04-16T20:01:14.620Z,2.47
2019-04-16T20:03:49.962Z,2.85
2019-04-16T20:06:25.261Z,2.80
2019-04-16T20:08:53.091Z,2.90
2019-04-16T20:11:23.958Z,2.12
2019-04-16T20:14:01.481Z,2.30
2019-04-16T20:16:29.779Z,2.10
2019-04-16T20:19:00.357Z,2.58
2019-04-16T20:21:31.101Z,2.47
2019-04-16T20:24:03.218Z,7.10
2019-04-16T20:26:33.923Z,2.25
2019-04-16T20:29:13.574Z,2.20
2019-04-16T20:31:42.105Z,2.20
2019-04-16T20:34:13.258Z,2.50
2019-04-16T20:36:44.263Z,2.50
2019-04-16T20:39:14.915Z,2.52
2019-04-16T20:41:47.178Z,2.45
2019-04-16T20:44:18.041Z,2.80
2019-04-16T20:46:48.512Z,2.60
2019-04-16T20:49:20.159Z,2.90
2019-04-16T20:51:50.526Z,2.42
2019-04-16T20:54:21.437Z,2.67
2019-04-16T20:56:53.060Z,2.87
2019-04-16T20:59:24.879Z,3.20
2019-04-16T21:01:55.868Z,2.80
2019-04-16T21:04:26.652Z,3.10
2019-04-16T21:07:01.923Z,2.77
2019-04-16T21:09:42.304Z,3.20
2019-04-16T21:12:13.832Z,2.65
2019-04-16T21:15:07.004Z,3.22
2019-04-16T21:17:45.189Z,2.80
2019-04-16T21:20:19.145Z,3.12
2019-04-16T21:22:50.153Z,2.83
2019-04-16T21:25:20.704Z,3.17
2019-04-16T21:27:57.713Z,3.77
2019-04-16T21:30:47.584Z,3.42
2019-04-16T21:33:29.662Z,3.37
2019-04-16T21:36:05.643Z,3.40
2019-04-16T21:38:52.292Z,3.25
2019-04-16T21:41:25.620Z,3.40
2019-04-16T21:44:13.190Z,3.27
2019-04-16T21:46:52.922Z,3.10
2019-04-16T21:49:38.316Z,3.40
2019-04-16T21:52:08.027Z,3.42
2019-04-16T21:54:47.842Z,3.62
2019-04-16T21:57:30.466Z,3.10
2019-04-16T22:00:12.842Z,3.08
2019-04-16T22:02:56.106Z,3.90
2019-04-16T22:05:39.070Z,4.50
2019-04-16T22:08:09.703Z,4.17
2019-04-16T22:10:41.443Z,3.80
2019-04-16T22:13:12.581Z,3.30
2019-04-16T22:15:42.985Z,3.70
2019-04-16T22:18:13.505Z,3.30
2019-04-16T22:20:44.141Z,3.40
2019-04-16T22:23:19.062Z,3.92
2019-04-16T22:25:52.300Z,4.12
2019-04-16T22:28:22.993Z,3.90
2019-04-16T22:30:53.422Z,4.05
2019-04-16T22:33:23.855Z,5.17
2019-04-16T22:35:54.455Z,4.12
2019-04-16T22:38:25.525Z,3.70
2019-04-16T22:41:14.852Z,4.10
2019-04-16T22:44:04.561Z,4.55
2019-04-16T22:46:48.408Z,3.83
2019-04-16T22:49:23.180Z,3.52
2019-04-16T22:51:53.771Z,3.80
2019-04-16T22:54:24.287Z,3.70
2019-04-16T22:57:19.435Z,4.08
2019-04-16T22:59:52.053Z,3.77
2019-04-16T23:02:25.705Z,3.90
2019-04-16T23:04:58.542Z,3.87
2019-04-16T23:07:30.819Z,3.65
2019-04-16T23:10:01.870Z,4.25
2019-04-16T23:12:39.473Z,3.65
2019-04-16T23:15:13.978Z,3.20
2019-04-16T23:17:45.994Z,3.80
2019-04-16T23:20:28.638Z,3.85
2019-04-16T23:22:55.391Z,3.77
2019-04-16T23:25:30.180Z,3.40
2019-04-16T23:28:00.691Z,3.52
2019-04-16T23:30:31.156Z,3.60
2019-04-16T23:33:01.938Z,3.50
2019-04-16T23:35:32.943Z,3.70
2019-04-16T23:38:04.517Z,3.45
2019-04-16T23:40:34.900Z,3.67
2019-04-16T23:43:23.129Z,3.42
2019-04-16T23:46:12.582Z,3.42
2019-04-16T23:48:52.832Z,4.60
2019-04-16T23:51:35.825Z,3.40
2019-04-16T23:54:19.001Z,3.40
2019-04-16T23:56:53.887Z,3.20
2019-04-16T23:59:32.669Z,3.40
